sensor_id;sensor_type;location;lat;lon;timestamp;pressure;altitude;pressure_sealevel;temperature;humidity
72110;BME280;59983;52.010;5.420;2024-02-16T00:01:41;100899.47;;;19.75;78.16
72110;BME280;59983;52.010;5.420;2024-02-16T00:04:07;100892.00;;;19.75;78.02
72110;BME280;59983;52.010;5.420;2024-02-16T00:06:34;100893.97;;;19.75;77.90
72110;BME280;59983;52.010;5.420;2024-02-16T00:09:01;100878.63;;;19.74;77.96
72110;BME280;59983;52.010;5.420;2024-02-16T00:11:28;100887.69;;;19.74;77.80
72110;BME280;59983;52.010;5.420;2024-02-16T00:13:55;100878.28;;;19.72;78.13
72110;BME280;59983;52.010;5.420;2024-02-16T00:16:22;100882.22;;;19.71;78.06
72110;BME280;59983;52.010;5.420;2024-02-16T00:18:48;100883.78;;;19.72;77.82
72110;BME280;59983;52.010;5.420;2024-02-16T00:21:15;100883.78;;;19.72;78.07
72110;BME280;59983;52.010;5.420;2024-02-16T00:23:43;100877.88;;;19.70;77.97
72110;BME280;59983;52.010;5.420;2024-02-16T00:26:11;100884.19;;;19.70;77.82
72110;BME280;59983;52.010;5.420;2024-02-16T00:28:38;100876.31;;;19.69;77.90
72110;BME280;59983;52.010;5.420;2024-02-16T00:31:04;100875.53;;;19.68;77.60
72110;BME280;59983;52.010;5.420;2024-02-16T00:33:32;100881.81;;;19.69;77.96
72110;BME280;59983;52.010;5.420;2024-02-16T00:36:00;100879.47;;;19.67;77.86
72110;BME280;59983;52.010;5.420;2024-02-16T00:38:26;100872.41;;;19.66;77.87
72110;BME280;59983;52.010;5.420;2024-02-16T00:40:53;100871.63;;;19.66;77.84
72110;BME280;59983;52.010;5.420;2024-02-16T00:43:19;100879.09;;;19.65;77.84
72110;BME280;59983;52.010;5.420;2024-02-16T00:45:46;100865.34;;;19.65;77.82
72110;BME280;59983;52.010;5.420;2024-02-16T00:48:14;100872.03;;;19.64;77.83
72110;BME280;59983;52.010;5.420;2024-02-16T00:50:41;100868.50;;;19.64;77.89
72110;BME280;59983;52.010;5.420;2024-02-16T00:53:10;100865.75;;;19.64;77.69
72110;BME280;59983;52.010;5.420;2024-02-16T00:55:36;100869.69;;;19.63;77.60
72110;BME280;59983;52.010;5.420;2024-02-16T00:58:04;100865.78;;;19.60;77.80
72110;BME280;59983;52.010;5.420;2024-02-16T01:00:31;100870.06;;;19.61;77.64
72110;BME280;59983;52.010;5.420;2024-02-16T01:02:57;100860.69;;;19.59;77.66
72110;BME280;59983;52.010;5.420;2024-02-16T01:05:24;100853.56;;;19.61;77.62
72110;BME280;59983;52.010;5.420;2024-02-16T01:07:51;100859.47;;;19.60;77.68
72110;BME280;59983;52.010;5.420;2024-02-16T01:10:18;100849.66;;;19.59;77.60
72110;BME280;59983;52.010;5.420;2024-02-16T01:12:45;100856.38;;;19.58;77.55
72110;BME280;59983;52.010;5.420;2024-02-16T01:15:11;100855.16;;;19.59;77.53
72110;BME280;59983;52.010;5.420;2024-02-16T01:17:38;100853.59;;;19.58;77.54
72110;BME280;59983;52.010;5.420;2024-02-16T01:20:06;100841.03;;;19.57;77.62
72110;BME280;59983;52.010;5.420;2024-02-16T01:22:38;100848.53;;;19.56;77.48
72110;BME280;59983;52.010;5.420;2024-02-16T01:25:06;100845.78;;;19.56;77.50
72110;BME280;59983;52.010;5.420;2024-02-16T01:27:34;100835.91;;;19.55;77.38
72110;BME280;59983;52.010;5.420;2024-02-16T01:30:02;100840.66;;;19.55;77.52
72110;BME280;59983;52.010;5.420;2024-02-16T01:32:29;100835.13;;;19.55;77.33
72110;BME280;59983;52.010;5.420;2024-02-16T01:34:56;100835.13;;;19.55;77.34
72110;BME280;59983;52.010;5.420;2024-02-16T01:37:23;100834.38;;;19.54;77.46
72110;BME280;59983;52.010;5.420;2024-02-16T01:39:49;100823.34;;;19.54;77.44
72110;BME280;59983;52.010;5.420;2024-02-16T01:42:16;100830.06;;;19.53;77.45
72110;BME280;59983;52.010;5.420;2024-02-16T01:44:42;100826.91;;;19.51;77.29
72110;BME280;59983;52.010;5.420;2024-02-16T01:47:09;100830.84;;;19.50;77.26
72110;BME280;59983;52.010;5.420;2024-02-16T01:49:35;100823.38;;;19.50;77.19
72110;BME280;59983;52.010;5.420;2024-02-16T01:52:04;100831.63;;;19.50;77.24
72110;BME280;59983;52.010;5.420;2024-02-16T01:54:31;100828.09;;;19.50;77.14
72110;BME280;59983;52.010;5.420;2024-02-16T01:56:58;100827.31;;;19.49;77.19
72110;BME280;59983;52.010;5.420;2024-02-16T01:59:26;100817.50;;;19.48;77.01
72110;BME280;59983;52.010;5.420;2024-02-16T02:01:52;100824.97;;;19.48;77.02
72110;BME280;59983;52.010;5.420;2024-02-16T02:04:19;100833.22;;;19.48;77.12
72110;BME280;59983;52.010;5.420;2024-02-16T02:06:46;100820.25;;;19.48;76.89
72110;BME280;59983;52.010;5.420;2024-02-16T02:09:13;100814.38;;;19.46;76.91
72110;BME280;59983;52.010;5.420;2024-02-16T02:11:39;100817.13;;;19.46;77.05
72110;BME280;59983;52.010;5.420;2024-02-16T02:14:06;100820.28;;;19.45;77.02
72110;BME280;59983;52.010;5.420;2024-02-16T02:16:33;100806.53;;;19.45;76.96
72110;BME280;59983;52.010;5.420;2024-02-16T02:19:13;100813.22;;;19.44;77.04
72110;BME280;59983;52.010;5.420;2024-02-16T02:21:40;100815.97;;;19.44;76.84
72110;BME280;59983;52.010;5.420;2024-02-16T02:24:07;100813.22;;;19.44;76.98
72110;BME280;59983;52.010;5.420;2024-02-16T02:26:35;100813.59;;;19.42;76.85
72110;BME280;59983;52.010;5.420;2024-02-16T02:29:02;100818.75;;;19.40;76.85
72110;BME280;59983;52.010;5.420;2024-02-16T02:31:28;100821.50;;;19.40;76.80
72110;BME280;59983;52.010;5.420;2024-02-16T02:33:55;100823.84;;;19.42;76.82
72110;BME280;59983;52.010;5.420;2024-02-16T02:36:22;100818.75;;;19.40;76.80
72110;BME280;59983;52.010;5.420;2024-02-16T02:38:49;100810.50;;;19.40;76.71
72110;BME280;59983;52.010;5.420;2024-02-16T02:41:16;100809.72;;;19.40;76.92
72110;BME280;59983;52.010;5.420;2024-02-16T02:43:45;100804.22;;;19.40;76.82
72110;BME280;59983;52.010;5.420;2024-02-16T02:46:15;100797.16;;;19.39;76.84
72110;BME280;59983;52.010;5.420;2024-02-16T02:48:44;100791.66;;;19.39;76.84
72110;BME280;59983;52.010;5.420;2024-02-16T02:51:17;100795.22;;;19.36;76.74
72110;BME280;59983;52.010;5.420;2024-02-16T02:53:44;100794.03;;;19.37;76.66
72110;BME280;59983;52.010;5.420;2024-02-16T02:56:10;100791.28;;;19.37;76.73
72110;BME280;59983;52.010;5.420;2024-02-16T02:58:39;100779.50;;;19.36;76.69
72110;BME280;59983;52.010;5.420;2024-02-16T03:01:05;100779.91;;;19.35;76.81
72110;BME280;59983;52.010;5.420;2024-02-16T03:03:34;100776.34;;;19.34;76.65
72110;BME280;59983;52.010;5.420;2024-02-16T03:06:01;100778.31;;;19.34;76.62
72110;BME280;59983;52.010;5.420;2024-02-16T03:08:28;100785.00;;;19.33;76.66
72110;BME280;59983;52.010;5.420;2024-02-16T03:10:54;100777.53;;;19.33;76.62
72110;BME280;59983;52.010;5.420;2024-02-16T03:13:21;100777.53;;;19.33;76.74
72110;BME280;59983;52.010;5.420;2024-02-16T03:15:47;100765.38;;;19.31;76.58
72110;BME280;59983;52.010;5.420;2024-02-16T03:18:14;100766.56;;;19.30;76.53
72110;BME280;59983;52.010;5.420;2024-02-16T03:20:41;100771.28;;;19.29;76.54
72110;BME280;59983;52.010;5.420;2024-02-16T03:23:12;100772.06;;;19.30;76.67
72110;BME280;59983;52.010;5.420;2024-02-16T03:25:39;100767.00;;;19.28;76.59
72110;BME280;59983;52.010;5.420;2024-02-16T03:28:09;100772.13;;;19.26;76.38
72110;BME280;59983;52.010;5.420;2024-02-16T03:30:36;100775.66;;;19.27;76.35
72110;BME280;59983;52.010;5.420;2024-02-16T03:33:03;100771.72;;;19.28;76.50
72110;BME280;59983;52.010;5.420;2024-02-16T03:35:30;100776.81;;;19.25;76.50
72110;BME280;59983;52.010;5.420;2024-02-16T03:37:56;100771.72;;;19.24;76.36
72110;BME280;59983;52.010;5.420;2024-02-16T03:40:24;100773.28;;;19.25;76.35
72110;BME280;59983;52.010;5.420;2024-02-16T03:42:54;100778.00;;;19.24;76.44
72110;BME280;59983;52.010;5.420;2024-02-16T03:45:21;100764.25;;;19.24;76.45
72110;BME280;59983;52.010;5.420;2024-02-16T03:47:48;100768.59;;;19.22;76.38
72110;BME280;59983;52.010;5.420;2024-02-16T03:50:21;100763.09;;;19.22;76.45
72110;BME280;59983;52.010;5.420;2024-02-16T03:52:48;100774.47;;;19.24;76.26
72110;BME280;59983;52.010;5.420;2024-02-16T03:55:15;100773.72;;;19.20;76.19
72110;BME280;59983;52.010;5.420;2024-02-16T03:57:42;100772.13;;;19.22;76.28
72110;BME280;59983;52.010;5.420;2024-02-16T04:00:08;100773.31;;;19.21;76.13
72110;BME280;59983;52.010;5.420;2024-02-16T04:02:35;100766.66;;;19.19;76.32
72110;BME280;59983;52.010;5.420;2024-02-16T04:05:03;100776.13;;;19.18;76.24
72110;BME280;59983;52.010;5.420;2024-02-16T04:07:30;100775.34;;;19.17;76.15
72110;BME280;59983;52.010;5.420;2024-02-16T04:09:57;100778.09;;;19.17;76.30
72110;BME280;59983;52.010;5.420;2024-02-16T04:12:23;100776.50;;;19.16;76.10
72110;BME280;59983;52.010;5.420;2024-02-16T04:14:50;100775.72;;;19.16;76.13
72110;BME280;59983;52.010;5.420;2024-02-16T04:17:17;100780.84;;;19.17;76.10
72110;BME280;59983;52.010;5.420;2024-02-16T04:19:43;100783.97;;;19.16;76.08
72110;BME280;59983;52.010;5.420;2024-02-16T04:22:10;100785.16;;;19.15;75.99
72110;BME280;59983;52.010;5.420;2024-02-16T04:24:37;100778.88;;;19.14;75.98
72110;BME280;59983;52.010;5.420;2024-02-16T04:27:04;100773.78;;;19.13;76.10
72110;BME280;59983;52.010;5.420;2024-02-16T04:29:34;100780.06;;;19.13;75.99
72110;BME280;59983;52.010;5.420;2024-02-16T04:32:01;100775.75;;;19.12;76.03
72110;BME280;59983;52.010;5.420;2024-02-16T04:34:27;100773.00;;;19.12;75.93
72110;BME280;59983;52.010;5.420;2024-02-16T04:36:55;100776.94;;;19.11;75.80
72110;BME280;59983;52.010;5.420;2024-02-16T04:39:21;100773.41;;;19.11;75.89
72110;BME280;59983;52.010;5.420;2024-02-16T04:41:49;100778.13;;;19.10;76.02
72110;BME280;59983;52.010;5.420;2024-02-16T04:44:18;100773.81;;;19.09;75.98
72110;BME280;59983;52.010;5.420;2024-02-16T04:46:44;100776.56;;;19.09;75.92
72110;BME280;59983;52.010;5.420;2024-02-16T04:49:11;100779.31;;;19.09;75.78
72110;BME280;59983;52.010;5.420;2024-02-16T04:51:38;100776.94;;;19.08;75.83
72110;BME280;59983;52.010;5.420;2024-02-16T04:54:06;100784.03;;;19.09;75.76
72110;BME280;59983;52.010;5.420;2024-02-16T04:56:32;100795.03;;;19.09;75.78
72110;BME280;59983;52.010;5.420;2024-02-16T04:58:59;100780.88;;;19.07;75.70
72110;BME280;59983;52.010;5.420;2024-02-16T05:01:25;100792.66;;;19.07;75.66
72110;BME280;59983;52.010;5.420;2024-02-16T05:03:53;100779.75;;;19.04;75.83
72110;BME280;59983;52.010;5.420;2024-02-16T05:06:19;100792.28;;;19.05;75.63
72110;BME280;59983;52.010;5.420;2024-02-16T05:08:46;100792.28;;;19.05;75.73
72110;BME280;59983;52.010;5.420;2024-02-16T05:11:13;100787.22;;;19.04;75.63
72110;BME280;59983;52.010;5.420;2024-02-16T05:13:39;100784.88;;;19.02;75.64
72110;BME280;59983;52.010;5.420;2024-02-16T05:16:09;100791.91;;;19.03;75.67
72110;BME280;59983;52.010;5.420;2024-02-16T05:18:37;100787.63;;;19.02;75.62
72110;BME280;59983;52.010;5.420;2024-02-16T05:21:03;100775.06;;;19.01;75.52
72110;BME280;59983;52.010;5.420;2024-02-16T05:23:30;100773.09;;;19.02;75.46
72110;BME280;59983;52.010;5.420;2024-02-16T05:25:57;100766.81;;;19.01;75.53
72110;BME280;59983;52.010;5.420;2024-02-16T05:28:24;100770.75;;;19.00;75.40
72110;BME280;59983;52.010;5.420;2024-02-16T05:30:50;100780.16;;;18.99;75.40
72110;BME280;59983;52.010;5.420;2024-02-16T05:33:17;100784.09;;;18.98;75.49
72110;BME280;59983;52.010;5.420;2024-02-16T05:35:44;100775.06;;;18.98;75.48
72110;BME280;59983;52.010;5.420;2024-02-16T05:38:11;100780.97;;;18.96;75.46
72110;BME280;59983;52.010;5.420;2024-02-16T05:40:47;100769.56;;;18.98;75.24
72110;BME280;59983;52.010;5.420;2024-02-16T05:43:20;100775.47;;;18.96;75.38
72110;BME280;59983;52.010;5.420;2024-02-16T05:45:47;100776.66;;;18.95;75.26
72110;BME280;59983;52.010;5.420;2024-02-16T05:48:13;100777.84;;;18.94;75.37
72110;BME280;59983;52.010;5.420;2024-02-16T05:50:40;100779.41;;;18.95;75.35
72110;BME280;59983;52.010;5.420;2024-02-16T05:53:07;100773.91;;;18.95;75.28
72110;BME280;59983;52.010;5.420;2024-02-16T05:55:37;100771.16;;;18.95;75.29
72110;BME280;59983;52.010;5.420;2024-02-16T05:58:03;100774.72;;;18.92;75.38
72110;BME280;59983;52.010;5.420;2024-02-16T06:00:34;100775.50;;;18.92;75.19
72110;BME280;59983;52.010;5.420;2024-02-16T06:03:01;100767.25;;;18.92;75.23
72110;BME280;59983;52.010;5.420;2024-02-16T06:05:29;100775.91;;;18.91;75.20
72110;BME280;59983;52.010;5.420;2024-02-16T06:07:55;100773.94;;;18.91;75.20
72110;BME280;59983;52.010;5.420;2024-02-16T06:10:24;100773.94;;;18.91;75.22
72110;BME280;59983;52.010;5.420;2024-02-16T06:12:50;100776.69;;;18.91;75.12
72110;BME280;59983;52.010;5.420;2024-02-16T06:15:17;100786.09;;;18.90;75.14
72110;BME280;59983;52.010;5.420;2024-02-16T06:17:43;100786.09;;;18.90;75.15
72110;BME280;59983;52.010;5.420;2024-02-16T06:20:10;100787.28;;;18.89;75.14
72110;BME280;59983;52.010;5.420;2024-02-16T06:22:38;100801.03;;;18.89;75.11
72110;BME280;59983;52.010;5.420;2024-02-16T06:25:04;100797.13;;;18.87;75.15
72110;BME280;59983;52.010;5.420;2024-02-16T06:27:32;100809.28;;;18.89;75.05
72110;BME280;59983;52.010;5.420;2024-02-16T06:29:59;100801.44;;;18.88;75.13
72110;BME280;59983;52.010;5.420;2024-02-16T06:32:26;100811.25;;;18.89;75.06
72110;BME280;59983;52.010;5.420;2024-02-16T06:34:53;100808.13;;;18.87;75.15
72110;BME280;59983;52.010;5.420;2024-02-16T06:37:19;100814.41;;;18.87;75.03
72110;BME280;59983;52.010;5.420;2024-02-16T06:39:46;100807.34;;;18.86;75.04
72110;BME280;59983;52.010;5.420;2024-02-16T06:42:13;100815.59;;;18.86;75.10
72110;BME280;59983;52.010;5.420;2024-02-16T06:44:40;100816.00;;;18.85;75.02
72110;BME280;59983;52.010;5.420;2024-02-16T06:47:07;100820.31;;;18.86;75.13
72110;BME280;59983;52.010;5.420;2024-02-16T06:49:33;100828.56;;;18.86;75.10
72110;BME280;59983;52.010;5.420;2024-02-16T06:52:00;100823.47;;;18.84;75.06
72110;BME280;59983;52.010;5.420;2024-02-16T06:54:26;100837.22;;;18.84;75.00
72110;BME280;59983;52.010;5.420;2024-02-16T06:56:53;100824.66;;;18.83;75.10
72110;BME280;59983;52.010;5.420;2024-02-16T06:59:20;100826.22;;;18.84;75.08
72110;BME280;59983;52.010;5.420;2024-02-16T07:01:46;100837.63;;;18.83;74.93
72110;BME280;59983;52.010;5.420;2024-02-16T07:04:13;100839.59;;;18.82;74.95
72110;BME280;59983;52.010;5.420;2024-02-16T07:06:39;100843.13;;;18.83;75.15
72110;BME280;59983;52.010;5.420;2024-02-16T07:09:07;100845.06;;;18.82;74.94
72110;BME280;59983;52.010;5.420;2024-02-16T07:11:34;100846.22;;;18.81;75.08
72110;BME280;59983;52.010;5.420;2024-02-16T07:14:01;100857.22;;;18.81;75.18
72110;BME280;59983;52.010;5.420;2024-02-16T07:16:28;100860.78;;;18.82;75.12
72110;BME280;59983;52.010;5.420;2024-02-16T07:18:55;100862.72;;;18.81;75.13
72110;BME280;59983;52.010;5.420;2024-02-16T07:21:22;100857.63;;;18.80;75.25
72110;BME280;59983;52.010;5.420;2024-02-16T07:23:49;100858.81;;;18.82;75.30
72110;BME280;59983;52.010;5.420;2024-02-16T07:26:17;100868.22;;;18.81;75.30
72110;BME280;59983;52.010;5.420;2024-02-16T07:28:44;100861.16;;;18.80;75.48
72110;BME280;59983;52.010;5.420;2024-02-16T07:31:11;100865.09;;;18.79;75.30
72110;BME280;59983;52.010;5.420;2024-02-16T07:33:38;100867.44;;;18.81;75.76
72110;BME280;59983;52.010;5.420;2024-02-16T07:36:04;100870.97;;;18.81;76.33
72110;BME280;59983;52.010;5.420;2024-02-16T07:38:31;100877.66;;;18.80;76.63
72110;BME280;59983;52.010;5.420;2024-02-16T07:40:58;100885.13;;;18.80;76.83
72110;BME280;59983;52.010;5.420;2024-02-16T07:43:27;100887.88;;;18.80;77.04
72110;BME280;59983;52.010;5.420;2024-02-16T07:45:53;100885.91;;;18.80;77.34
72110;BME280;59983;52.010;5.420;2024-02-16T07:48:21;100881.97;;;18.81;77.52
72110;BME280;59983;52.010;5.420;2024-02-16T07:50:48;100887.09;;;18.83;77.53
72110;BME280;59983;52.010;5.420;2024-02-16T07:53:17;100891.03;;;18.82;77.61
72110;BME280;59983;52.010;5.420;2024-02-16T07:55:43;100900.03;;;18.82;77.67
72110;BME280;59983;52.010;5.420;2024-02-16T07:58:10;100897.69;;;18.81;77.89
72110;BME280;59983;52.010;5.420;2024-02-16T08:00:36;100897.69;;;18.81;77.75
72110;BME280;59983;52.010;5.420;2024-02-16T08:03:03;100896.50;;;18.82;77.95
72110;BME280;59983;52.010;5.420;2024-02-16T08:05:30;100911.03;;;18.82;77.98
72110;BME280;59983;52.010;5.420;2024-02-16T08:07:57;100914.16;;;18.84;77.84
72110;BME280;59983;52.010;5.420;2024-02-16T08:10:24;100914.16;;;18.84;77.84
72110;BME280;59983;52.010;5.420;2024-02-16T08:12:51;100915.75;;;18.82;77.84
72110;BME280;59983;52.010;5.420;2024-02-16T08:15:19;100920.84;;;18.83;77.84
72110;BME280;59983;52.010;5.420;2024-02-16T08:17:52;100921.25;;;18.82;77.69
72110;BME280;59983;52.010;5.420;2024-02-16T08:20:19;100925.94;;;18.85;77.70
72110;BME280;59983;52.010;5.420;2024-02-16T08:22:47;100922.81;;;18.83;77.90
72110;BME280;59983;52.010;5.420;2024-02-16T08:25:14;100938.13;;;18.84;77.91
72110;BME280;59983;52.010;5.420;2024-02-16T08:27:40;100927.91;;;18.84;77.92
72110;BME280;59983;52.010;5.420;2024-02-16T08:30:07;100934.59;;;18.83;77.90
72110;BME280;59983;52.010;5.420;2024-02-16T08:32:36;100928.31;;;18.83;77.96
72110;BME280;59983;52.010;5.420;2024-02-16T08:35:02;100931.84;;;18.83;77.88
72110;BME280;59983;52.010;5.420;2024-02-16T08:37:30;100936.16;;;18.84;77.92
72110;BME280;59983;52.010;5.420;2024-02-16T08:39:56;100930.28;;;18.82;77.85
72110;BME280;59983;52.010;5.420;2024-02-16T08:42:23;100933.41;;;18.84;77.82
72110;BME280;59983;52.010;5.420;2024-02-16T08:44:50;100933.03;;;18.82;77.97
72110;BME280;59983;52.010;5.420;2024-02-16T08:47:17;100936.16;;;18.84;77.86
72110;BME280;59983;52.010;5.420;2024-02-16T08:49:43;100936.94;;;18.85;77.76
72110;BME280;59983;52.010;5.420;2024-02-16T08:52:10;100936.56;;;18.83;77.88
72110;BME280;59983;52.010;5.420;2024-02-16T08:54:36;100943.63;;;18.84;77.74
72110;BME280;59983;52.010;5.420;2024-02-16T08:57:03;100948.34;;;18.83;77.47
72110;BME280;59983;52.010;5.420;2024-02-16T08:59:32;100955.41;;;18.84;77.27
72110;BME280;59983;52.010;5.420;2024-02-16T09:02:00;100960.88;;;18.84;77.43
72110;BME280;59983;52.010;5.420;2024-02-16T09:04:27;100953.06;;;18.83;77.68
72110;BME280;59983;52.010;5.420;2024-02-16T09:06:54;100959.31;;;18.83;77.55
72110;BME280;59983;52.010;5.420;2024-02-16T09:09:20;100975.41;;;18.81;77.13
72110;BME280;59983;52.010;5.420;2024-02-16T09:11:47;100986.81;;;18.83;77.01
72110;BME280;59983;52.010;5.420;2024-02-16T09:14:14;100985.25;;;18.82;76.87
72110;BME280;59983;52.010;5.420;2024-02-16T09:16:40;100985.25;;;18.82;76.96
72110;BME280;59983;52.010;5.420;2024-02-16T09:19:07;101000.97;;;18.82;76.88
72110;BME280;59983;52.010;5.420;2024-02-16T09:21:33;101015.84;;;18.81;77.06
72110;BME280;59983;52.010;5.420;2024-02-16T09:24:00;101017.03;;;18.80;77.17
72110;BME280;59983;52.010;5.420;2024-02-16T09:26:28;101027.25;;;18.79;77.08
72110;BME280;59983;52.010;5.420;2024-02-16T09:29:00;101022.94;;;18.78;77.11
72110;BME280;59983;52.010;5.420;2024-02-16T09:31:26;101030.41;;;18.78;77.02
72110;BME280;59983;52.010;5.420;2024-02-16T09:33:53;101031.59;;;18.77;77.06
72110;BME280;59983;52.010;5.420;2024-02-16T09:36:20;101042.97;;;18.75;77.08
72110;BME280;59983;52.010;5.420;2024-02-16T09:38:48;101043.75;;;18.76;77.15
72110;BME280;59983;52.010;5.420;2024-02-16T09:41:14;101048.88;;;18.74;77.26
72110;BME280;59983;52.010;5.420;2024-02-16T09:43:43;101048.88;;;18.74;77.25
72110;BME280;59983;52.010;5.420;2024-02-16T09:46:10;101049.25;;;18.72;77.19
72110;BME280;59983;52.010;5.420;2024-02-16T09:48:39;101045.72;;;18.72;77.27
72110;BME280;59983;52.010;5.420;2024-02-16T09:51:07;101049.66;;;18.71;77.41
72110;BME280;59983;52.010;5.420;2024-02-16T09:53:34;101064.16;;;18.71;77.31
72110;BME280;59983;52.010;5.420;2024-02-16T09:56:01;101073.59;;;18.70;77.30
72110;BME280;59983;52.010;5.420;2024-02-16T09:58:28;101081.84;;;18.70;77.31
72110;BME280;59983;52.010;5.420;2024-02-16T10:00:55;101077.53;;;18.69;77.40
72110;BME280;59983;52.010;5.420;2024-02-16T10:03:29;101078.72;;;18.68;77.33
72110;BME280;59983;52.010;5.420;2024-02-16T10:06:09;101085.78;;;18.69;77.44
72110;BME280;59983;52.010;5.420;2024-02-16T10:08:47;101091.66;;;18.67;77.42
72110;BME280;59983;52.010;5.420;2024-02-16T10:11:18;101093.63;;;18.67;77.39
72110;BME280;59983;52.010;5.420;2024-02-16T10:14:02;101090.88;;;18.67;77.56
72110;BME280;59983;52.010;5.420;2024-02-16T10:16:30;101093.25;;;18.65;77.39
72110;BME280;59983;52.010;5.420;2024-02-16T10:19:04;101092.84;;;18.66;77.53
72110;BME280;59983;52.010;5.420;2024-02-16T10:21:32;101103.41;;;18.64;77.53
72110;BME280;59983;52.010;5.420;2024-02-16T10:24:02;101121.84;;;18.64;77.40
72110;BME280;59983;52.010;5.420;2024-02-16T10:26:29;101119.50;;;18.62;77.39
72110;BME280;59983;52.010;5.420;2024-02-16T10:28:56;101124.22;;;18.62;77.60
72110;BME280;59983;52.010;5.420;2024-02-16T10:31:25;101126.16;;;18.61;77.36
72110;BME280;59983;52.010;5.420;2024-02-16T10:34:02;101135.19;;;18.62;77.45
72110;BME280;59983;52.010;5.420;2024-02-16T10:36:35;101136.38;;;18.61;77.57
72110;BME280;59983;52.010;5.420;2024-02-16T10:39:04;101147.75;;;18.59;77.41
72110;BME280;59983;52.010;5.420;2024-02-16T10:41:37;101150.50;;;18.59;77.50
72110;BME280;59983;52.010;5.420;2024-02-16T10:44:04;101155.22;;;18.59;77.58
72110;BME280;59983;52.010;5.420;2024-02-16T10:46:33;101165.03;;;18.60;77.72
72110;BME280;59983;52.010;5.420;2024-02-16T10:49:00;101165.81;;;18.60;77.89
72110;BME280;59983;52.010;5.420;2024-02-16T10:51:39;101170.53;;;18.60;77.91
72110;BME280;59983;52.010;5.420;2024-02-16T10:54:07;101179.16;;;18.58;78.28
72110;BME280;59983;52.010;5.420;2024-02-16T10:56:36;101182.69;;;18.59;78.14
72110;BME280;59983;52.010;5.420;2024-02-16T10:59:05;101190.53;;;18.60;78.29
72110;BME280;59983;52.010;5.420;2024-02-16T11:01:41;101193.69;;;18.59;78.43
72110;BME280;59983;52.010;5.420;2024-02-16T11:04:11;101197.22;;;18.59;78.49
72110;BME280;59983;52.010;5.420;2024-02-16T11:06:55;101193.69;;;18.59;78.50
72110;BME280;59983;52.010;5.420;2024-02-16T11:11:59;101184.66;;;18.58;78.59
72110;BME280;59983;52.010;5.420;2024-02-16T11:14:39;101204.28;;;18.60;78.56
72110;BME280;59983;52.010;5.420;2024-02-16T11:17:14;101213.72;;;18.59;78.50
72110;BME280;59983;52.010;5.420;2024-02-16T11:19:42;101226.66;;;18.59;78.56
72110;BME280;59983;52.010;5.420;2024-02-16T11:22:10;101230.59;;;18.58;78.54
72110;BME280;59983;52.010;5.420;2024-02-16T11:24:43;101227.44;;;18.59;78.71
72110;BME280;59983;52.010;5.420;2024-02-16T11:27:11;101233.72;;;18.60;78.73
72110;BME280;59983;52.010;5.420;2024-02-16T11:29:39;101226.25;;;18.60;78.99
72110;BME280;59983;52.010;5.420;2024-02-16T11:32:06;101216.06;;;18.61;79.30
72110;BME280;59983;52.010;5.420;2024-02-16T11:34:34;101225.88;;;18.62;79.62
72110;BME280;59983;52.010;5.420;2024-02-16T11:37:01;101234.91;;;18.62;80.07
72110;BME280;59983;52.010;5.420;2024-02-16T11:39:28;101235.69;;;18.63;79.96
72110;BME280;59983;52.010;5.420;2024-02-16T11:42:07;101245.50;;;18.64;79.88
72110;BME280;59983;52.010;5.420;2024-02-16T11:44:35;101239.66;;;18.65;80.08
72110;BME280;59983;52.010;5.420;2024-02-16T11:47:03;101238.09;;;18.68;80.28
72110;BME280;59983;52.010;5.420;2024-02-16T11:49:29;101233.38;;;18.68;80.74
72110;BME280;59983;52.010;5.420;2024-02-16T11:51:59;101243.19;;;18.77;80.72
72110;BME280;59983;52.010;5.420;2024-02-16T11:54:26;101241.22;;;18.81;80.81
72110;BME280;59983;52.010;5.420;2024-02-16T11:56:53;101243.22;;;18.87;80.69
72110;BME280;59983;52.010;5.420;2024-02-16T11:59:20;101249.91;;;18.93;80.45
72110;BME280;59983;52.010;5.420;2024-02-16T12:01:56;101265.19;;;18.98;80.28
72110;BME280;59983;52.010;5.420;2024-02-16T12:04:32;101261.28;;;19.03;80.23
72110;BME280;59983;52.010;5.420;2024-02-16T12:07:06;101269.13;;;19.08;80.25
72110;BME280;59983;52.010;5.420;2024-02-16T12:09:33;101278.59;;;19.10;80.01
72110;BME280;59983;52.010;5.420;2024-02-16T12:12:02;101278.97;;;19.16;79.79
72110;BME280;59983;52.010;5.420;2024-02-16T12:14:29;101277.00;;;19.20;79.80
72110;BME280;59983;52.010;5.420;2024-02-16T12:16:56;101280.53;;;19.24;79.70
72110;BME280;59983;52.010;5.420;2024-02-16T12:19:23;101290.75;;;19.27;79.77
72110;BME280;59983;52.010;5.420;2024-02-16T12:21:55;101299.41;;;19.29;79.53
72110;BME280;59983;52.010;5.420;2024-02-16T12:24:25;101302.56;;;19.35;79.58
72110;BME280;59983;52.010;5.420;2024-02-16T12:26:52;101314.34;;;19.39;79.61
72110;BME280;59983;52.010;5.420;2024-02-16T12:29:18;101317.84;;;19.43;79.44
72110;BME280;59983;52.010;5.420;2024-02-16T12:31:46;101321.41;;;19.47;79.35
72110;BME280;59983;52.010;5.420;2024-02-16T12:34:14;101319.81;;;19.49;79.18
72110;BME280;59983;52.010;5.420;2024-02-16T12:36:41;101326.50;;;19.52;79.31
72110;BME280;59983;52.010;5.420;2024-02-16T12:39:13;101328.47;;;19.55;79.19
72110;BME280;59983;52.010;5.420;2024-02-16T12:41:42;101330.06;;;19.60;79.06
72110;BME280;59983;52.010;5.420;2024-02-16T12:44:10;101339.88;;;19.61;78.85
72110;BME280;59983;52.010;5.420;2024-02-16T12:46:37;101350.91;;;19.64;78.88
72110;BME280;59983;52.010;5.420;2024-02-16T12:49:05;101353.66;;;19.64;78.87
72110;BME280;59983;52.010;5.420;2024-02-16T12:51:33;101355.63;;;19.64;78.87
72110;BME280;59983;52.010;5.420;2024-02-16T12:54:00;101366.25;;;19.65;78.75
72110;BME280;59983;52.010;5.420;2024-02-16T12:56:30;101363.09;;;19.63;78.70